sensor_id;sensor_type;location;lat;lon;timestamp;P1;durP1;ratioP1;P2;durP2;ratioP2
77304;SDS011;66364;52.622;7.746;2023-01-30T00:01:53;40.45;;;29.45;;
77304;SDS011;66364;52.622;7.746;2023-01-30T00:03:55;47.93;;;29.82;;
77304;SDS011;66364;52.622;7.746;2023-01-30T00:05:58;42.60;;;28.17;;
77304;SDS011;66364;52.622;7.746;2023-01-30T00:07:59;46.43;;;31.63;;
77304;SDS011;66364;52.622;7.746;2023-01-30T00:10:07;38.85;;;25.48;;
77304;SDS011;66364;52.622;7.746;2023-01-30T00:12:11;49.75;;;34.43;;
77304;SDS011;66364;52.622;7.746;2023-01-30T00:14:13;53.45;;;34.27;;
77304;SDS011;66364;52.622;7.746;2023-01-30T00:16:16;48.50;;;30.95;;
77304;SDS011;66364;52.622;7.746;2023-01-30T00:18:19;49.80;;;30.10;;
77304;SDS011;66364;52.622;7.746;2023-01-30T00:20:21;46.10;;;31.23;;
77304;SDS011;66364;52.622;7.746;2023-01-30T00:22:24;44.77;;;29.27;;
77304;SDS011;66364;52.622;7.746;2023-01-30T00:24:25;45.53;;;31.13;;
77304;SDS011;66364;52.622;7.746;2023-01-30T00:26:26;48.90;;;33.17;;
77304;SDS011;66364;52.622;7.746;2023-01-30T00:28:26;54.70;;;32.63;;
77304;SDS011;66364;52.622;7.746;2023-01-30T00:30:29;43.00;;;29.02;;
77304;SDS011;66364;52.622;7.746;2023-01-30T00:32:36;42.45;;;28.52;;
77304;SDS011;66364;52.622;7.746;2023-01-30T00:34:37;46.08;;;30.32;;
77304;SDS011;66364;52.622;7.746;2023-01-30T00:36:40;46.25;;;30.90;;
77304;SDS011;66364;52.622;7.746;2023-01-30T00:38:41;50.47;;;30.90;;
77304;SDS011;66364;52.622;7.746;2023-01-30T00:40:42;45.10;;;30.32;;
77304;SDS011;66364;52.622;7.746;2023-01-30T00:42:44;50.20;;;32.73;;
77304;SDS011;66364;52.622;7.746;2023-01-30T00:44:44;43.73;;;29.50;;
77304;SDS011;66364;52.622;7.746;2023-01-30T00:46:45;52.20;;;31.57;;
77304;SDS011;66364;52.622;7.746;2023-01-30T00:48:46;55.37;;;35.47;;
77304;SDS011;66364;52.622;7.746;2023-01-30T00:50:48;56.30;;;36.25;;
77304;SDS011;66364;52.622;7.746;2023-01-30T00:52:49;59.30;;;37.90;;
77304;SDS011;66364;52.622;7.746;2023-01-30T00:54:51;58.08;;;37.15;;
77304;SDS011;66364;52.622;7.746;2023-01-30T00:56:52;56.58;;;37.17;;
77304;SDS011;66364;52.622;7.746;2023-01-30T00:58:53;51.73;;;29.97;;
77304;SDS011;66364;52.622;7.746;2023-01-30T01:00:54;48.13;;;33.00;;
77304;SDS011;66364;52.622;7.746;2023-01-30T01:02:56;60.37;;;39.17;;
77304;SDS011;66364;52.622;7.746;2023-01-30T01:04:57;56.85;;;36.60;;
77304;SDS011;66364;52.622;7.746;2023-01-30T01:06:58;48.37;;;33.30;;
77304;SDS011;66364;52.622;7.746;2023-01-30T01:08:59;56.80;;;34.17;;
77304;SDS011;66364;52.622;7.746;2023-01-30T01:11:00;50.60;;;34.33;;
77304;SDS011;66364;52.622;7.746;2023-01-30T01:13:02;63.08;;;37.67;;
77304;SDS011;66364;52.622;7.746;2023-01-30T01:15:04;58.05;;;33.58;;
77304;SDS011;66364;52.622;7.746;2023-01-30T01:17:05;55.40;;;36.33;;
77304;SDS011;66364;52.622;7.746;2023-01-30T01:19:07;55.70;;;34.43;;
77304;SDS011;66364;52.622;7.746;2023-01-30T01:21:08;59.35;;;38.60;;
77304;SDS011;66364;52.622;7.746;2023-01-30T01:25:20;54.75;;;35.35;;
77304;SDS011;66364;52.622;7.746;2023-01-30T01:27:21;46.75;;;29.75;;
77304;SDS011;66364;52.622;7.746;2023-01-30T01:29:22;56.90;;;36.75;;
77304;SDS011;66364;52.622;7.746;2023-01-30T01:31:23;58.50;;;36.60;;
77304;SDS011;66364;52.622;7.746;2023-01-30T01:33:26;57.90;;;34.70;;
77304;SDS011;66364;52.622;7.746;2023-01-30T01:35:28;57.58;;;36.00;;
77304;SDS011;66364;52.622;7.746;2023-01-30T01:37:28;54.93;;;36.87;;
77304;SDS011;66364;52.622;7.746;2023-01-30T01:39:29;53.15;;;33.23;;
77304;SDS011;66364;52.622;7.746;2023-01-30T01:41:30;56.77;;;33.63;;
77304;SDS011;66364;52.622;7.746;2023-01-30T01:43:36;59.20;;;39.63;;
77304;SDS011;66364;52.622;7.746;2023-01-30T01:45:39;55.98;;;38.80;;
77304;SDS011;66364;52.622;7.746;2023-01-30T01:47:42;48.70;;;34.67;;
77304;SDS011;66364;52.622;7.746;2023-01-30T01:49:45;60.03;;;35.78;;
77304;SDS011;66364;52.622;7.746;2023-01-30T01:51:48;57.15;;;36.80;;
77304;SDS011;66364;52.622;7.746;2023-01-30T01:54:01;55.83;;;35.20;;
77304;SDS011;66364;52.622;7.746;2023-01-30T01:56:13;53.25;;;37.78;;
77304;SDS011;66364;52.622;7.746;2023-01-30T01:58:23;56.15;;;36.53;;
77304;SDS011;66364;52.622;7.746;2023-01-30T02:00:28;56.48;;;34.88;;
77304;SDS011;66364;52.622;7.746;2023-01-30T02:02:30;64.10;;;38.35;;
77304;SDS011;66364;52.622;7.746;2023-01-30T02:04:41;60.80;;;36.98;;
77304;SDS011;66364;52.622;7.746;2023-01-30T02:06:44;63.23;;;41.48;;
77304;SDS011;66364;52.622;7.746;2023-01-30T02:08:50;57.17;;;36.40;;
77304;SDS011;66364;52.622;7.746;2023-01-30T02:10:55;65.22;;;38.50;;
77304;SDS011;66364;52.622;7.746;2023-01-30T02:13:12;67.30;;;41.90;;
77304;SDS011;66364;52.622;7.746;2023-01-30T02:15:13;67.40;;;39.50;;
77304;SDS011;66364;52.622;7.746;2023-01-30T02:17:14;65.45;;;38.70;;
77304;SDS011;66364;52.622;7.746;2023-01-30T02:19:36;66.03;;;43.90;;
77304;SDS011;66364;52.622;7.746;2023-01-30T02:22:00;65.83;;;38.90;;
77304;SDS011;66364;52.622;7.746;2023-01-30T02:32:01;59.63;;;37.08;;
77304;SDS011;66364;52.622;7.746;2023-01-30T02:34:34;74.75;;;44.00;;
77304;SDS011;66364;52.622;7.746;2023-01-30T02:39:06;55.35;;;35.45;;
77304;SDS011;66364;52.622;7.746;2023-01-30T02:48:06;61.80;;;40.75;;
77304;SDS011;66364;52.622;7.746;2023-01-30T02:50:22;55.75;;;36.65;;
77304;SDS011;66364;52.622;7.746;2023-01-30T02:52:21;64.82;;;39.42;;
77304;SDS011;66364;52.622;7.746;2023-01-30T02:54:22;59.80;;;39.00;;
77304;SDS011;66364;52.622;7.746;2023-01-30T02:56:23;57.07;;;37.40;;
77304;SDS011;66364;52.622;7.746;2023-01-30T02:58:25;58.00;;;36.83;;
77304;SDS011;66364;52.622;7.746;2023-01-30T03:05:23;51.13;;;35.48;;
77304;SDS011;66364;52.622;7.746;2023-01-30T03:07:37;53.63;;;38.13;;
77304;SDS011;66364;52.622;7.746;2023-01-30T03:10:04;56.63;;;37.80;;
77304;SDS011;66364;52.622;7.746;2023-01-30T03:14:38;52.38;;;36.65;;
77304;SDS011;66364;52.622;7.746;2023-01-30T03:16:40;51.88;;;35.48;;
77304;SDS011;66364;52.622;7.746;2023-01-30T03:20:45;51.30;;;32.75;;
77304;SDS011;66364;52.622;7.746;2023-01-30T03:22:47;45.08;;;30.32;;
77304;SDS011;66364;52.622;7.746;2023-01-30T03:24:48;47.83;;;31.73;;
77304;SDS011;66364;52.622;7.746;2023-01-30T03:26:53;43.90;;;29.25;;
77304;SDS011;66364;52.622;7.746;2023-01-30T03:29:00;49.75;;;32.63;;
77304;SDS011;66364;52.622;7.746;2023-01-30T03:31:04;44.53;;;29.65;;
77304;SDS011;66364;52.622;7.746;2023-01-30T03:33:05;40.65;;;28.60;;
77304;SDS011;66364;52.622;7.746;2023-01-30T03:35:06;41.17;;;27.97;;
77304;SDS011;66364;52.622;7.746;2023-01-30T03:37:08;38.92;;;27.15;;
77304;SDS011;66364;52.622;7.746;2023-01-30T03:39:09;33.05;;;23.35;;
77304;SDS011;66364;52.622;7.746;2023-01-30T03:41:10;34.80;;;22.70;;
77304;SDS011;66364;52.622;7.746;2023-01-30T03:43:11;32.20;;;23.57;;
77304;SDS011;66364;52.622;7.746;2023-01-30T03:45:12;34.50;;;24.40;;
77304;SDS011;66364;52.622;7.746;2023-01-30T03:47:12;34.67;;;25.37;;
77304;SDS011;66364;52.622;7.746;2023-01-30T03:49:13;33.90;;;25.07;;
77304;SDS011;66364;52.622;7.746;2023-01-30T03:51:14;31.57;;;24.20;;
77304;SDS011;66364;52.622;7.746;2023-01-30T03:53:15;34.18;;;25.15;;
77304;SDS011;66364;52.622;7.746;2023-01-30T03:55:17;32.35;;;24.87;;
77304;SDS011;66364;52.622;7.746;2023-01-30T03:59:34;32.00;;;22.50;;
77304;SDS011;66364;52.622;7.746;2023-01-30T04:01:36;33.05;;;24.52;;
77304;SDS011;66364;52.622;7.746;2023-01-30T04:03:37;31.68;;;23.20;;
77304;SDS011;66364;52.622;7.746;2023-01-30T04:05:38;31.35;;;23.10;;
77304;SDS011;66364;52.622;7.746;2023-01-30T04:07:41;26.23;;;21.35;;
77304;SDS011;66364;52.622;7.746;2023-01-30T04:09:42;31.80;;;23.20;;
77304;SDS011;66364;52.622;7.746;2023-01-30T04:11:43;27.90;;;21.80;;
77304;SDS011;66364;52.622;7.746;2023-01-30T04:13:44;31.97;;;22.07;;
77304;SDS011;66364;52.622;7.746;2023-01-30T04:15:45;29.20;;;21.40;;
77304;SDS011;66364;52.622;7.746;2023-01-30T04:17:47;29.00;;;20.32;;
77304;SDS011;66364;52.622;7.746;2023-01-30T04:19:48;23.67;;;18.85;;
77304;SDS011;66364;52.622;7.746;2023-01-30T04:21:49;24.97;;;19.13;;
77304;SDS011;66364;52.622;7.746;2023-01-30T04:23:49;26.50;;;17.50;;
77304;SDS011;66364;52.622;7.746;2023-01-30T04:25:50;25.97;;;18.50;;
77304;SDS011;66364;52.622;7.746;2023-01-30T04:27:51;17.17;;;13.60;;
77304;SDS011;66364;52.622;7.746;2023-01-30T04:29:52;17.57;;;13.63;;
77304;SDS011;66364;52.622;7.746;2023-01-30T04:31:53;16.53;;;12.77;;
77304;SDS011;66364;52.622;7.746;2023-01-30T04:36:14;21.15;;;12.63;;
77304;SDS011;66364;52.622;7.746;2023-01-30T04:38:15;15.83;;;10.72;;
77304;SDS011;66364;52.622;7.746;2023-01-30T04:40:16;13.00;;;8.20;;
77304;SDS011;66364;52.622;7.746;2023-01-30T04:42:17;16.97;;;10.20;;
77304;SDS011;66364;52.622;7.746;2023-01-30T04:44:18;19.05;;;9.38;;
77304;SDS011;66364;52.622;7.746;2023-01-30T04:46:19;14.30;;;9.48;;
77304;SDS011;66364;52.622;7.746;2023-01-30T04:48:21;19.40;;;8.70;;
77304;SDS011;66364;52.622;7.746;2023-01-30T04:50:23;12.43;;;8.48;;
77304;SDS011;66364;52.622;7.746;2023-01-30T04:52:23;13.47;;;7.60;;
77304;SDS011;66364;52.622;7.746;2023-01-30T04:54:24;10.73;;;7.60;;
77304;SDS011;66364;52.622;7.746;2023-01-30T04:56:25;15.23;;;8.75;;
77304;SDS011;66364;52.622;7.746;2023-01-30T04:58:27;12.15;;;6.60;;
77304;SDS011;66364;52.622;7.746;2023-01-30T05:00:28;13.05;;;7.78;;
77304;SDS011;66364;52.622;7.746;2023-01-30T05:02:29;15.47;;;9.73;;
77304;SDS011;66364;52.622;7.746;2023-01-30T05:04:31;13.85;;;7.28;;
77304;SDS011;66364;52.622;7.746;2023-01-30T05:06:42;19.23;;;6.97;;
77304;SDS011;66364;52.622;7.746;2023-01-30T05:08:42;14.38;;;6.12;;
77304;SDS011;66364;52.622;7.746;2023-01-30T05:10:43;11.75;;;7.08;;
77304;SDS011;66364;52.622;7.746;2023-01-30T05:12:44;14.40;;;7.00;;
77304;SDS011;66364;52.622;7.746;2023-01-30T05:14:46;17.55;;;5.65;;
77304;SDS011;66364;52.622;7.746;2023-01-30T05:16:47;7.95;;;5.62;;
77304;SDS011;66364;52.622;7.746;2023-01-30T05:18:49;16.07;;;6.72;;
77304;SDS011;66364;52.622;7.746;2023-01-30T05:20:50;15.93;;;6.47;;
77304;SDS011;66364;52.622;7.746;2023-01-30T05:22:51;15.90;;;6.00;;
77304;SDS011;66364;52.622;7.746;2023-01-30T05:24:51;11.30;;;6.00;;
77304;SDS011;66364;52.622;7.746;2023-01-30T05:26:53;11.90;;;6.92;;
77304;SDS011;66364;52.622;7.746;2023-01-30T05:28:54;10.43;;;6.33;;
77304;SDS011;66364;52.622;7.746;2023-01-30T05:31:06;15.53;;;6.20;;
77304;SDS011;66364;52.622;7.746;2023-01-30T05:33:09;15.75;;;6.22;;
77304;SDS011;66364;52.622;7.746;2023-01-30T05:35:10;18.83;;;7.10;;
77304;SDS011;66364;52.622;7.746;2023-01-30T05:37:11;22.00;;;6.30;;
77304;SDS011;66364;52.622;7.746;2023-01-30T05:39:12;19.27;;;6.65;;
77304;SDS011;66364;52.622;7.746;2023-01-30T05:41:13;9.03;;;5.80;;
77304;SDS011;66364;52.622;7.746;2023-01-30T05:43:15;15.80;;;5.90;;
77304;SDS011;66364;52.622;7.746;2023-01-30T05:45:17;20.08;;;6.58;;
77304;SDS011;66364;52.622;7.746;2023-01-30T05:47:17;19.47;;;6.00;;
77304;SDS011;66364;52.622;7.746;2023-01-30T05:49:18;14.13;;;5.20;;
77304;SDS011;66364;52.622;7.746;2023-01-30T05:51:20;13.18;;;5.42;;
77304;SDS011;66364;52.622;7.746;2023-01-30T05:53:23;10.55;;;4.92;;
77304;SDS011;66364;52.622;7.746;2023-01-30T05:55:26;12.50;;;4.65;;
77304;SDS011;66364;52.622;7.746;2023-01-30T05:59:31;13.62;;;5.08;;
77304;SDS011;66364;52.622;7.746;2023-01-30T06:01:32;14.23;;;5.10;;
77304;SDS011;66364;52.622;7.746;2023-01-30T06:03:33;19.93;;;6.40;;
77304;SDS011;66364;52.622;7.746;2023-01-30T06:05:36;14.73;;;5.07;;
77304;SDS011;66364;52.622;7.746;2023-01-30T06:07:37;15.63;;;5.42;;
77304;SDS011;66364;52.622;7.746;2023-01-30T06:09:38;20.07;;;5.10;;
77304;SDS011;66364;52.622;7.746;2023-01-30T06:11:39;18.93;;;5.60;;
77304;SDS011;66364;52.622;7.746;2023-01-30T06:13:41;17.48;;;4.90;;
77304;SDS011;66364;52.622;7.746;2023-01-30T06:16:04;20.25;;;5.15;;
77304;SDS011;66364;52.622;7.746;2023-01-30T06:18:06;14.85;;;5.85;;
77304;SDS011;66364;52.622;7.746;2023-01-30T06:20:08;15.25;;;4.12;;
77304;SDS011;66364;52.622;7.746;2023-01-30T06:22:10;14.05;;;4.28;;
77304;SDS011;66364;52.622;7.746;2023-01-30T06:24:11;17.50;;;4.53;;
77304;SDS011;66364;52.622;7.746;2023-01-30T06:26:12;16.30;;;4.87;;
77304;SDS011;66364;52.622;7.746;2023-01-30T06:28:14;21.07;;;4.57;;
77304;SDS011;66364;52.622;7.746;2023-01-30T06:30:15;11.57;;;3.95;;
77304;SDS011;66364;52.622;7.746;2023-01-30T06:32:17;15.83;;;5.70;;
77304;SDS011;66364;52.622;7.746;2023-01-30T06:34:18;10.23;;;4.03;;
77304;SDS011;66364;52.622;7.746;2023-01-30T06:36:19;17.82;;;4.00;;
77304;SDS011;66364;52.622;7.746;2023-01-30T06:38:20;19.77;;;4.20;;
77304;SDS011;66364;52.622;7.746;2023-01-30T06:40:21;12.20;;;4.43;;
77304;SDS011;66364;52.622;7.746;2023-01-30T06:42:22;14.58;;;4.47;;
77304;SDS011;66364;52.622;7.746;2023-01-30T06:44:34;12.65;;;5.92;;
77304;SDS011;66364;52.622;7.746;2023-01-30T06:46:34;11.22;;;4.70;;
77304;SDS011;66364;52.622;7.746;2023-01-30T06:48:36;22.62;;;5.87;;
77304;SDS011;66364;52.622;7.746;2023-01-30T06:50:37;10.97;;;4.77;;
77304;SDS011;66364;52.622;7.746;2023-01-30T06:52:41;14.37;;;5.17;;
77304;SDS011;66364;52.622;7.746;2023-01-30T06:54:43;17.45;;;4.37;;
77304;SDS011;66364;52.622;7.746;2023-01-30T06:56:45;11.03;;;4.10;;
77304;SDS011;66364;52.622;7.746;2023-01-30T06:58:46;9.23;;;3.80;;
77304;SDS011;66364;52.622;7.746;2023-01-30T07:03:09;18.30;;;5.60;;
77304;SDS011;66364;52.622;7.746;2023-01-30T07:05:11;13.70;;;4.35;;
77304;SDS011;66364;52.622;7.746;2023-01-30T07:07:13;18.45;;;4.75;;
77304;SDS011;66364;52.622;7.746;2023-01-30T07:09:14;11.97;;;4.23;;
77304;SDS011;66364;52.622;7.746;2023-01-30T07:11:14;16.07;;;4.30;;
77304;SDS011;66364;52.622;7.746;2023-01-30T07:13:15;19.65;;;6.25;;
77304;SDS011;66364;52.622;7.746;2023-01-30T07:15:17;27.32;;;5.65;;
77304;SDS011;66364;52.622;7.746;2023-01-30T07:17:18;18.53;;;6.63;;
77304;SDS011;66364;52.622;7.746;2023-01-30T07:19:19;18.80;;;5.00;;
77304;SDS011;66364;52.622;7.746;2023-01-30T07:21:20;14.03;;;4.83;;
77304;SDS011;66364;52.622;7.746;2023-01-30T07:23:22;16.90;;;4.70;;
77304;SDS011;66364;52.622;7.746;2023-01-30T07:25:24;12.68;;;3.85;;
77304;SDS011;66364;52.622;7.746;2023-01-30T07:27:26;19.48;;;3.98;;
77304;SDS011;66364;52.622;7.746;2023-01-30T07:29:27;15.23;;;4.15;;
77304;SDS011;66364;52.622;7.746;2023-01-30T07:31:28;18.70;;;3.77;;
77304;SDS011;66364;52.622;7.746;2023-01-30T07:33:29;18.33;;;4.10;;
77304;SDS011;66364;52.622;7.746;2023-01-30T07:35:32;11.70;;;3.80;;
77304;SDS011;66364;52.622;7.746;2023-01-30T07:37:50;15.63;;;4.10;;
77304;SDS011;66364;52.622;7.746;2023-01-30T07:39:52;15.03;;;4.33;;
77304;SDS011;66364;52.622;7.746;2023-01-30T07:41:52;17.20;;;4.10;;
77304;SDS011;66364;52.622;7.746;2023-01-30T07:43:53;17.07;;;4.63;;
77304;SDS011;66364;52.622;7.746;2023-01-30T07:45:55;15.50;;;3.80;;
77304;SDS011;66364;52.622;7.746;2023-01-30T07:47:56;27.77;;;7.93;;
77304;SDS011;66364;52.622;7.746;2023-01-30T07:49:57;19.35;;;4.65;;
77304;SDS011;66364;52.622;7.746;2023-01-30T07:51:58;14.20;;;4.15;;
77304;SDS011;66364;52.622;7.746;2023-01-30T07:53:59;16.10;;;4.75;;
77304;SDS011;66364;52.622;7.746;2023-01-30T07:56:11;17.70;;;4.40;;
77304;SDS011;66364;52.622;7.746;2023-01-30T07:58:11;15.95;;;3.42;;
77304;SDS011;66364;52.622;7.746;2023-01-30T08:00:13;11.18;;;3.75;;
77304;SDS011;66364;52.622;7.746;2023-01-30T08:02:15;8.55;;;3.92;;
77304;SDS011;66364;52.622;7.746;2023-01-30T08:04:18;17.23;;;4.62;;
77304;SDS011;66364;52.622;7.746;2023-01-30T08:06:19;15.50;;;4.58;;
77304;SDS011;66364;52.622;7.746;2023-01-30T08:08:20;13.25;;;4.40;;
77304;SDS011;66364;52.622;7.746;2023-01-30T08:10:21;10.50;;;3.80;;
77304;SDS011;66364;52.622;7.746;2023-01-30T08:12:22;15.37;;;4.30;;
77304;SDS011;66364;52.622;7.746;2023-01-30T08:14:23;15.90;;;4.75;;
77304;SDS011;66364;52.622;7.746;2023-01-30T08:16:24;17.50;;;3.70;;
77304;SDS011;66364;52.622;7.746;2023-01-30T08:18:25;15.30;;;5.07;;
77304;SDS011;66364;52.622;7.746;2023-01-30T08:20:28;23.70;;;6.35;;
77304;SDS011;66364;52.622;7.746;2023-01-30T08:24:51;16.12;;;6.60;;
77304;SDS011;66364;52.622;7.746;2023-01-30T08:26:52;12.97;;;4.07;;
77304;SDS011;66364;52.622;7.746;2023-01-30T08:28:52;11.13;;;4.00;;
77304;SDS011;66364;52.622;7.746;2023-01-30T08:30:53;13.87;;;4.43;;
77304;SDS011;66364;52.622;7.746;2023-01-30T08:32:55;23.62;;;4.85;;
77304;SDS011;66364;52.622;7.746;2023-01-30T08:34:57;14.55;;;4.53;;
77304;SDS011;66364;52.622;7.746;2023-01-30T08:36:58;22.95;;;4.50;;
77304;SDS011;66364;52.622;7.746;2023-01-30T08:39:05;12.17;;;4.67;;
77304;SDS011;66364;52.622;7.746;2023-01-30T08:41:07;20.32;;;4.58;;
77304;SDS011;66364;52.622;7.746;2023-01-30T08:45:29;15.30;;;5.15;;
77304;SDS011;66364;52.622;7.746;2023-01-30T08:47:30;16.80;;;5.40;;
77304;SDS011;66364;52.622;7.746;2023-01-30T08:49:31;18.15;;;3.95;;
77304;SDS011;66364;52.622;7.746;2023-01-30T08:53:53;16.95;;;4.47;;
77304;SDS011;66364;52.622;7.746;2023-01-30T08:55:53;14.40;;;4.70;;
77304;SDS011;66364;52.622;7.746;2023-01-30T08:57:54;14.37;;;4.03;;
77304;SDS011;66364;52.622;7.746;2023-01-30T08:59:56;15.83;;;5.05;;
77304;SDS011;66364;52.622;7.746;2023-01-30T09:01:57;14.65;;;4.78;;
77304;SDS011;66364;52.622;7.746;2023-01-30T09:03:58;21.80;;;5.00;;
77304;SDS011;66364;52.622;7.746;2023-01-30T09:08:58;17.00;;;4.50;;
77304;SDS011;66364;52.622;7.746;2023-01-30T09:11:18;14.25;;;4.35;;
77304;SDS011;66364;52.622;7.746;2023-01-30T09:13:38;35.38;;;6.47;;
77304;SDS011;66364;52.622;7.746;2023-01-30T09:15:59;14.73;;;3.95;;
77304;SDS011;66364;52.622;7.746;2023-01-30T09:18:19;14.07;;;4.47;;
77304;SDS011;66364;52.622;7.746;2023-01-30T09:20:39;23.60;;;5.25;;
77304;SDS011;66364;52.622;7.746;2023-01-30T09:22:59;19.75;;;5.10;;
77304;SDS011;66364;52.622;7.746;2023-01-30T09:25:40;19.85;;;4.75;;
77304;SDS011;66364;52.622;7.746;2023-01-30T09:27:48;13.20;;;3.65;;
77304;SDS011;66364;52.622;7.746;2023-01-30T09:29:51;17.87;;;4.75;;
77304;SDS011;66364;52.622;7.746;2023-01-30T09:31:51;21.40;;;4.40;;
77304;SDS011;66364;52.622;7.746;2023-01-30T09:33:53;24.85;;;5.35;;
77304;SDS011;66364;52.622;7.746;2023-01-30T09:35:54;20.27;;;5.90;;
77304;SDS011;66364;52.622;7.746;2023-01-30T09:37:55;17.12;;;5.00;;
77304;SDS011;66364;52.622;7.746;2023-01-30T09:39:55;18.73;;;4.97;;
77304;SDS011;66364;52.622;7.746;2023-01-30T09:46:29;19.48;;;5.30;;
77304;SDS011;66364;52.622;7.746;2023-01-30T09:48:54;16.85;;;4.33;;
77304;SDS011;66364;52.622;7.746;2023-01-30T09:55:39;15.72;;;4.17;;
77304;SDS011;66364;52.622;7.746;2023-01-30T09:57:41;16.55;;;4.87;;
77304;SDS011;66364;52.622;7.746;2023-01-30T09:59:58;17.37;;;4.10;;
77304;SDS011;66364;52.622;7.746;2023-01-30T10:04:45;18.75;;;4.97;;
77304;SDS011;66364;52.622;7.746;2023-01-30T10:07:07;22.70;;;5.45;;
77304;SDS011;66364;52.622;7.746;2023-01-30T10:16:15;20.48;;;6.15;;
77304;SDS011;66364;52.622;7.746;2023-01-30T10:19:10;21.17;;;6.08;;
77304;SDS011;66364;52.622;7.746;2023-01-30T10:23:57;17.67;;;4.95;;
77304;SDS011;66364;52.622;7.746;2023-01-30T10:25:47;21.42;;;5.42;;
77304;SDS011;66364;52.622;7.746;2023-01-30T10:28:00;20.68;;;5.17;;
77304;SDS011;66364;52.622;7.746;2023-01-30T10:30:06;14.50;;;6.03;;
77304;SDS011;66364;52.622;7.746;2023-01-30T10:32:14;17.82;;;4.60;;
77304;SDS011;66364;52.622;7.746;2023-01-30T10:34:26;16.00;;;5.28;;
77304;SDS011;66364;52.622;7.746;2023-01-30T10:39:17;20.25;;;4.28;;
77304;SDS011;66364;52.622;7.746;2023-01-30T10:41:22;13.18;;;5.30;;
77304;SDS011;66364;52.622;7.746;2023-01-30T10:45:41;18.42;;;4.45;;
77304;SDS011;66364;52.622;7.746;2023-01-30T10:48:10;18.45;;;4.75;;
77304;SDS011;66364;52.622;7.746;2023-01-30T10:50:30;23.50;;;4.42;;
77304;SDS011;66364;52.622;7.746;2023-01-30T10:52:34;16.73;;;4.47;;
77304;SDS011;66364;52.622;7.746;2023-01-30T10:59:41;12.05;;;3.40;;
77304;SDS011;66364;52.622;7.746;2023-01-30T11:02:02;14.50;;;3.58;;
77304;SDS011;66364;52.622;7.746;2023-01-30T11:04:29;11.15;;;3.60;;
77304;SDS011;66364;52.622;7.746;2023-01-30T11:06:17;15.08;;;3.50;;
77304;SDS011;66364;52.622;7.746;2023-01-30T11:08:27;10.58;;;4.28;;
77304;SDS011;66364;52.622;7.746;2023-01-30T11:10:30;7.25;;;2.45;;
77304;SDS011;66364;52.622;7.746;2023-01-30T11:12:31;6.80;;;2.92;;
77304;SDS011;66364;52.622;7.746;2023-01-30T11:16:56;10.48;;;2.50;;
77304;SDS011;66364;52.622;7.746;2023-01-30T11:18:57;12.20;;;3.35;;
77304;SDS011;66364;52.622;7.746;2023-01-30T11:21:02;12.80;;;3.52;;
77304;SDS011;66364;52.622;7.746;2023-01-30T11:23:06;10.70;;;3.70;;
77304;SDS011;66364;52.622;7.746;2023-01-30T11:25:12;11.33;;;3.08;;
77304;SDS011;66364;52.622;7.746;2023-01-30T11:27:18;12.95;;;3.77;;
77304;SDS011;66364;52.622;7.746;2023-01-30T11:29:28;11.78;;;4.35;;
77304;SDS011;66364;52.622;7.746;2023-01-30T11:31:31;19.07;;;3.92;;
77304;SDS011;66364;52.622;7.746;2023-01-30T11:33:33;23.73;;;4.00;;
77304;SDS011;66364;52.622;7.746;2023-01-30T11:35:55;16.50;;;4.03;;
77304;SDS011;66364;52.622;7.746;2023-01-30T11:37:53;11.12;;;2.10;;
77304;SDS011;66364;52.622;7.746;2023-01-30T11:39:55;5.08;;;1.40;;
77304;SDS011;66364;52.622;7.746;2023-01-30T11:41:58;5.67;;;2.83;;
77304;SDS011;66364;52.622;7.746;2023-01-30T11:44:01;11.35;;;2.95;;
77304;SDS011;66364;52.622;7.746;2023-01-30T11:46:04;11.75;;;3.75;;
77304;SDS011;66364;52.622;7.746;2023-01-30T11:48:25;9.70;;;2.95;;
77304;SDS011;66364;52.622;7.746;2023-01-30T11:50:32;8.73;;;2.62;;
77304;SDS011;66364;52.622;7.746;2023-01-30T11:52:41;14.93;;;3.30;;
77304;SDS011;66364;52.622;7.746;2023-01-30T11:54:44;12.45;;;3.27;;
77304;SDS011;66364;52.622;7.746;2023-01-30T11:56:53;11.73;;;5.20;;
77304;SDS011;66364;52.622;7.746;2023-01-30T12:04:20;8.85;;;2.27;;
77304;SDS011;66364;52.622;7.746;2023-01-30T12:06:33;5.40;;;2.60;;
77304;SDS011;66364;52.622;7.746;2023-01-30T12:08:34;11.12;;;3.17;;
77304;SDS011;66364;52.622;7.746;2023-01-30T12:10:49;12.70;;;2.70;;
77304;SDS011;66364;52.622;7.746;2023-01-30T12:12:45;13.08;;;2.95;;
77304;SDS011;66364;52.622;7.746;2023-01-30T12:14:52;10.60;;;2.70;;
77304;SDS011;66364;52.622;7.746;2023-01-30T12:17:26;7.65;;;2.45;;
77304;SDS011;66364;52.622;7.746;2023-01-30T12:21:45;17.15;;;3.05;;
77304;SDS011;66364;52.622;7.746;2023-01-30T12:26:48;12.58;;;3.20;;
77304;SDS011;66364;52.622;7.746;2023-01-30T12:31:21;9.00;;;2.92;;
77304;SDS011;66364;52.622;7.746;2023-01-30T12:33:35;12.53;;;3.50;;
77304;SDS011;66364;52.622;7.746;2023-01-30T12:40:38;9.73;;;2.95;;
77304;SDS011;66364;52.622;7.746;2023-01-30T12:45:20;11.20;;;2.83;;
77304;SDS011;66364;52.622;7.746;2023-01-30T12:49:34;12.05;;;2.80;;
77304;SDS011;66364;52.622;7.746;2023-01-30T12:56:07;9.85;;;3.10;;
77304;SDS011;66364;52.622;7.746;2023-01-30T12:58:25;12.68;;;3.33;;
77304;SDS011;66364;52.622;7.746;2023-01-30T13:03:01;6.87;;;3.30;;
77304;SDS011;66364;52.622;7.746;2023-01-30T13:07:45;6.00;;;2.67;;
77304;SDS011;66364;52.622;7.746;2023-01-30T13:14:25;7.70;;;2.90;;
77304;SDS011;66364;52.622;7.746;2023-01-30T13:16:35;7.60;;;2.80;;
77304;SDS011;66364;52.622;7.746;2023-01-30T13:23:19;12.90;;;2.42;;
77304;SDS011;66364;52.622;7.746;2023-01-30T13:25:35;9.90;;;2.40;;
77304;SDS011;66364;52.622;7.746;2023-01-30T13:27:37;8.30;;;2.70;;
77304;SDS011;66364;52.622;7.746;2023-01-30T13:29:39;8.65;;;2.67;;
77304;SDS011;66364;52.622;7.746;2023-01-30T13:32:00;9.38;;;2.37;;
77304;SDS011;66364;52.622;7.746;2023-01-30T13:34:05;18.57;;;3.15;;
77304;SDS011;66364;52.622;7.746;2023-01-30T13:36:13;10.95;;;3.10;;
77304;SDS011;66364;52.622;7.746;2023-01-30T13:38:23;11.63;;;3.52;;
77304;SDS011;66364;52.622;7.746;2023-01-30T13:40:28;9.48;;;2.00;;
77304;SDS011;66364;52.622;7.746;2023-01-30T13:42:36;13.78;;;3.12;;
77304;SDS011;66364;52.622;7.746;2023-01-30T13:44:41;8.65;;;3.02;;
77304;SDS011;66364;52.622;7.746;2023-01-30T13:46:43;12.33;;;3.37;;
77304;SDS011;66364;52.622;7.746;2023-01-30T13:48:54;18.52;;;2.90;;
77304;SDS011;66364;52.622;7.746;2023-01-30T13:53:18;11.55;;;3.33;;
77304;SDS011;66364;52.622;7.746;2023-01-30T13:57:57;11.28;;;4.62;;
77304;SDS011;66364;52.622;7.746;2023-01-30T14:05:06;10.65;;;4.05;;
77304;SDS011;66364;52.622;7.746;2023-01-30T14:07:10;14.28;;;4.10;;
77304;SDS011;66364;52.622;7.746;2023-01-30T14:09:17;15.68;;;3.30;;
77304;SDS011;66364;52.622;7.746;2023-01-30T14:13:49;15.10;;;4.10;;
77304;SDS011;66364;52.622;7.746;2023-01-30T14:15:56;12.80;;;3.42;;
77304;SDS011;66364;52.622;7.746;2023-01-30T14:20:31;12.55;;;3.42;;
77304;SDS011;66364;52.622;7.746;2023-01-30T14:22:35;13.58;;;3.35;;
77304;SDS011;66364;52.622;7.746;2023-01-30T14:24:38;19.98;;;5.28;;
77304;SDS011;66364;52.622;7.746;2023-01-30T14:29:00;10.05;;;3.10;;
77304;SDS011;66364;52.622;7.746;2023-01-30T14:31:01;15.88;;;3.87;;
77304;SDS011;66364;52.622;7.746;2023-01-30T14:33:03;18.67;;;3.17;;
77304;SDS011;66364;52.622;7.746;2023-01-30T14:35:26;19.92;;;4.00;;
77304;SDS011;66364;52.622;7.746;2023-01-30T14:39:40;15.13;;;4.22;;